Wetterdaten: Woche 30.03.09 - 05.04.09 (KW14)
Datum Zeit Temp. A. Feuchte A. Luftdruck Regen Wind Richtung Taupunkt Windchill Windben
30.03.2009 00:00 2,8 C 89 % 1009,5 hPa 0,3 l/m 7,2 km/h W-NW 1,2 C 2,1 C 17,7 km/h
30.03.2009 01:00 2,8 C 89 % 1009,8 hPa 1,2 l/m 6,6 km/h W-SW 1,1 C 2,5 C 17,7 km/h
30.03.2009 02:00 2,8 C 89 % 1010,0 hPa 1,2 l/m 7,6 km/h W 1,1 C 1,7 C 18,5 km/h
30.03.2009 03:00 2,7 C 89 % 1010,5 hPa 0,6 l/m 7,4 km/h NW 1,1 C 1,8 C 18,9 km/h
30.03.2009 04:00 2,7 C 89 % 1011,3 hPa 1,2 l/m 7,8 km/h NW 1,1 C 1,3 C 19,3 km/h
30.03.2009 05:00 2,7 C 89 % 1011,8 hPa 0,6 l/m 7,8 km/h W-NW 1,1 C 1,4 C 18,5 km/h
30.03.2009 06:00 3,0 C 88 % 1012,5 hPa 0,0 l/m 8,6 km/h W 1,3 C 1,1 C 20,1 km/h
30.03.2009 07:00 3,3 C 87 % 1013,3 hPa 0,0 l/m 8,2 km/h NW 1,3 C 1,6 C 19,3 km/h
30.03.2009 08:00 3,3 C 87 % 1014,4 hPa 0,0 l/m 8,1 km/h W-NW 1,3 C 1,7 C 21,4 km/h
30.03.2009 09:00 3,9 C 85 % 1015,4 hPa 0,0 l/m 8,3 km/h NW 1,7 C 2,2 C 19,3 km/h
30.03.2009 10:00 4,4 C 85 % 1016,4 hPa 0,0 l/m 8,4 km/h NW 2,1 C 2,7 C 20,5 km/h
30.03.2009 11:00 5,8 C 83 % 1017,0 hPa 0,0 l/m 9,1 km/h NW 3,1 C 3,7 C 20,5 km/h
30.03.2009 12:00 6,5 C 80 % 1017,7 hPa 0,0 l/m 8,7 km/h NW 3,3 C 4,7 C 18,9 km/h
30.03.2009 13:00 6,8 C 80 % 1017,9 hPa 0,0 l/m 8,1 km/h W-NW 3,6 C 5,5 C 19,3 km/h
30.03.2009 14:00 7,4 C 79 % 1018,1 hPa 0,0 l/m 8,1 km/h W-SW 3,9 C 6,0 C 18,1 km/h
30.03.2009 15:00 7,5 C 78 % 1018,4 hPa 0,0 l/m 7,3 km/h NW 3,9 C 6,8 C 19,3 km/h
30.03.2009 16:00 7,4 C 78 % 1018,8 hPa 0,0 l/m 7,2 km/h W 3,7 C 6,7 C 16,5 km/h
30.03.2009 17:00 7,3 C 78 % 1019,2 hPa 0,0 l/m 6,4 km/h W-NW 3,7 C 7,0 C 15,7 km/h
30.03.2009 18:00 7,4 C 78 % 1019,7 hPa 0,0 l/m 5,3 km/h W-SW 3,8 C 7,4 C 12,1 km/h
30.03.2009 19:00 7,2 C 78 % 1020,2 hPa 0,0 l/m 4,7 km/h W 3,7 C 7,2 C 9,7 km/h
30.03.2009 20:00 7,2 C 78 % 1020,8 hPa 0,0 l/m 4,7 km/h NW 3,7 C 7,2 C 11,7 km/h
30.03.2009 21:00 7,2 C 78 % 1021,3 hPa 0,0 l/m 3,6 km/h NW 3,6 C 7,2 C 9,3 km/h
30.03.2009 22:00 6,6 C 80 % 1021,7 hPa 0,0 l/m 1,6 km/h NW 3,4 C 6,6 C 5,2 km/h
30.03.2009 23:00 6,3 C 82 % 1022,1 hPa 0,0 l/m 1,8 km/h N-NW 3,4 C 6,3 C 6,4 km/h
31.03.2009 00:00 4,7 C 85 % 1022,8 hPa 0,0 l/m 0,3 km/h N 2,4 C 4,7 C 2,4 km/h
31.03.2009 01:00 3,0 C 89 % 1022,9 hPa 0,0 l/m 0,1 km/h N 1,4 C 3,0 C 1,2 km/h
31.03.2009 02:00 3,2 C 90 % 1023,0 hPa 0,0 l/m 0,1 km/h N 1,7 C 3,2 C 1,6 km/h
31.03.2009 03:00 2,7 C 91 % 1023,1 hPa 0,0 l/m 0,0 km/h N 1,3 C 2,7 C 3,2 km/h
31.03.2009 04:00 1,5 C 91 % 1023,2 hPa 0,0 l/m 0,0 km/h N 0,2 C 1,5 C 1,6 km/h
31.03.2009 05:00 0,8 C 92 % 1023,6 hPa 0,0 l/m 0,0 km/h N -0,4 C 0,8 C 0,8 km/h
31.03.2009 06:00 1,5 C 92 % 1023,7 hPa 0,0 l/m 0,0 km/h N 0,3 C 1,5 C 2,4 km/h
31.03.2009 07:00 2,3 C 92 % 1023,7 hPa 0,0 l/m 0,0 km/h N 1,1 C 2,3 C 2,4 km/h
31.03.2009 08:00 5,1 C 85 % 1023,7 hPa 0,0 l/m 4,0 km/h NW 2,8 C 5,1 C 8,9 km/h
31.03.2009 09:00 6,3 C 79 % 1024,0 hPa 0,0 l/m 4,2 km/h NO 2,9 C 6,3 C 10,1 km/h
31.03.2009 10:00 7,7 C 74 % 1023,6 hPa 0,0 l/m 5,6 km/h N-NO 3,3 C 7,7 C 11,3 km/h
31.03.2009 11:00 8,9 C 69 % 1023,1 hPa 0,0 l/m 5,8 km/h NO 3,4 C 8,9 C 13,7 km/h
31.03.2009 12:00 8,8 C 70 % 1023,1 hPa 0,0 l/m 6,1 km/h NW 3,6 C 8,7 C 14,1 km/h
31.03.2009 13:00 9,2 C 68 % 1022,9 hPa 0,0 l/m 4,8 km/h N-NW 3,6 C 9,2 C 10,1 km/h
31.03.2009 14:00 9,8 C 68 % 1022,5 hPa 0,0 l/m 4,0 km/h NO 4,2 C 9,8 C 10,9 km/h
31.03.2009 15:00 10,3 C 68 % 1022,2 hPa 0,0 l/m 2,5 km/h NO 4,6 C 10,3 C 7,6 km/h
31.03.2009 16:00 10,3 C 67 % 1021,9 hPa 0,0 l/m 3,0 km/h NO 4,4 C 10,3 C 8,8 km/h
31.03.2009 17:00 10,0 C 72 % 1021,6 hPa 0,0 l/m 4,5 km/h O-NO 5,2 C 10,0 C 9,3 km/h
31.03.2009 18:00 9,7 C 74 % 1021,6 hPa 0,0 l/m 3,9 km/h O-NO 5,3 C 9,7 C 8,0 km/h
31.03.2009 19:00 9,3 C 76 % 1021,4 hPa 0,0 l/m 2,7 km/h NO 5,3 C 9,3 C 6,4 km/h
31.03.2009 20:00 8,9 C 79 % 1021,6 hPa 0,0 l/m 0,4 km/h N 5,5 C 8,9 C 2,8 km/h
31.03.2009 21:00 8,7 C 82 % 1021,5 hPa 0,0 l/m 0,0 km/h N 5,7 C 8,7 C 0,8 km/h
31.03.2009 22:00 8,6 C 82 % 1021,3 hPa 0,0 l/m 0,0 km/h N 5,7 C 8,6 C 0,4 km/h
31.03.2009 23:00 8,5 C 83 % 1021,0 hPa 0,0 l/m 0,0 km/h N 5,8 C 8,5 C 0,4 km/h
01.04.2009 00:00 8,3 C 86 % 1020,7 hPa 0,0 l/m 0,0 km/h N 6,0 C 8,3 C 0,0 km/h
01.04.2009 01:00 7,9 C 87 % 1020,3 hPa 0,0 l/m 0,0 km/h N 6,0 C 7,9 C 0,0 km/h
01.04.2009 02:00 7,7 C 90 % 1019,8 hPa 0,0 l/m 0,0 km/h N 6,2 C 7,7 C 0,0 km/h
01.04.2009 03:00 7,8 C 89 % 1019,3 hPa 0,0 l/m 0,1 km/h N 6,1 C 7,8 C 1,6 km/h
01.04.2009 04:00 8,1 C 87 % 1019,0 hPa 0,0 l/m 0,4 km/h N 6,0 C 8,1 C 3,6 km/h
01.04.2009 05:00 8,1 C 87 % 1018,8 hPa 0,0 l/m 0,7 km/h S 6,0 C 8,1 C 5,6 km/h
01.04.2009 06:00 7,9 C 89 % 1018,7 hPa 0,0 l/m 1,3 km/h SO 6,1 C 7,9 C 4,4 km/h
01.04.2009 07:00 7,8 C 90 % 1018,8 hPa 0,0 l/m 0,4 km/h N 6,3 C 7,8 C 3,7 km/h
01.04.2009 08:00 8,3 C 90 % 1018,5 hPa 0,0 l/m 0,0 km/h N 6,7 C 8,3 C 3,2 km/h
01.04.2009 09:00 8,9 C 88 % 1018,6 hPa 0,0 l/m 0,8 km/h O-SO 7,1 C 8,9 C 8,1 km/h
01.04.2009 10:00 9,6 C 86 % 1018,7 hPa 0,0 l/m 0,8 km/h O 7,2 C 9,6 C 8,9 km/h
01.04.2009 11:00 10,7 C 84 % 1018,5 hPa 0,0 l/m 4,8 km/h O 8,0 C 10,7 C 15,3 km/h
01.04.2009 12:00 12,3 C 78 % 1018,0 hPa 0,0 l/m 3,2 km/h SO 8,5 C 12,3 C 12,9 km/h
01.04.2009 13:00 13,1 C 77 % 1018,0 hPa 0,0 l/m 3,4 km/h S-SO 9,1 C 13,1 C 12,1 km/h
01.04.2009 14:00 13,1 C 78 % 1017,9 hPa 0,0 l/m 5,8 km/h O 9,3 C 13,0 C 16,5 km/h
01.04.2009 15:00 13,4 C 77 % 1017,8 hPa 0,0 l/m 5,7 km/h O 9,4 C 13,3 C 15,3 km/h
01.04.2009 16:00 13,5 C 76 % 1017,4 hPa 0,0 l/m 6,2 km/h SO 9,4 C 13,5 C 16,1 km/h
01.04.2009 17:00 13,7 C 76 % 1017,4 hPa 0,0 l/m 4,0 km/h O 9,5 C 13,7 C 12,1 km/h
01.04.2009 18:00 13,3 C 75 % 1017,5 hPa 0,0 l/m 3,6 km/h SO 9,1 C 13,3 C 9,7 km/h
01.04.2009 19:00 13,2 C 76 % 1017,9 hPa 0,0 l/m 2,5 km/h O-SO 9,0 C 13,2 C 7,6 km/h
01.04.2009 20:00 12,6 C 79 % 1018,8 hPa 0,0 l/m 1,6 km/h O-SO 9,0 C 12,6 C 4,8 km/h
01.04.2009 21:00 12,3 C 78 % 1019,2 hPa 0,0 l/m 1,3 km/h O 8,6 C 12,3 C 3,6 km/h
01.04.2009 22:00 11,6 C 82 % 1019,3 hPa 0,0 l/m 0,0 km/h N 8,7 C 11,6 C 0,4 km/h
01.04.2009 23:00 11,1 C 85 % 1019,4 hPa 0,0 l/m 0,0 km/h N 8,6 C 11,1 C 0,0 km/h
02.04.2009 00:00 10,7 C 86 % 1019,3 hPa 0,0 l/m 0,0 km/h N 8,5 C 10,7 C 0,0 km/h
02.04.2009 01:00 10,2 C 87 % 1019,6 hPa 0,0 l/m 0,0 km/h N 8,2 C 10,2 C 0,0 km/h
02.04.2009 02:00 9,8 C 89 % 1019,8 hPa 0,0 l/m 0,0 km/h N 8,0 C 9,8 C 0,4 km/h
02.04.2009 03:00 8,9 C 89 % 1019,9 hPa 0,0 l/m 0,0 km/h N 7,1 C 8,9 C 0,4 km/h
02.04.2009 04:00 7,8 C 91 % 1019,9 hPa 0,0 l/m 0,0 km/h N 6,4 C 7,8 C 0,4 km/h
02.04.2009 05:00 6,7 C 92 % 1020,1 hPa 0,0 l/m 0,0 km/h N 5,5 C 6,7 C 0,0 km/h
02.04.2009 06:00 7,1 C 92 % 1020,6 hPa 0,0 l/m 0,0 km/h N 5,9 C 7,1 C 0,0 km/h
02.04.2009 07:00 8,3 C 90 % 1020,9 hPa 0,0 l/m 0,0 km/h N 6,7 C 8,3 C 1,2 km/h
02.04.2009 08:00 9,9 C 82 % 1021,1 hPa 0,0 l/m 0,0 km/h N 6,9 C 9,9 C 0,4 km/h
02.04.2009 09:00 11,1 C 72 % 1021,5 hPa 0,0 l/m 1,2 km/h O-SO 6,3 C 11,1 C 4,0 km/h
02.04.2009 10:00 12,8 C 71 % 1021,8 hPa 0,0 l/m 3,7 km/h O 7,7 C 12,8 C 9,3 km/h
02.04.2009 11:00 14,6 C 63 % 1021,6 hPa 0,0 l/m 3,6 km/h S-SW 7,6 C 14,6 C 10,9 km/h
02.04.2009 12:00 16,2 C 57 % 1021,2 hPa 0,0 l/m 3,8 km/h O-SO 7,6 C 16,2 C 10,9 km/h
02.04.2009 13:00 16,9 C 53 % 1020,9 hPa 0,0 l/m 5,4 km/h O-NO 7,2 C 16,9 C 13,7 km/h
02.04.2009 14:00 17,3 C 52 % 1020,7 hPa 0,0 l/m 5,2 km/h O-SO 7,4 C 17,3 C 14,9 km/h
02.04.2009 15:00 17,7 C 50 % 1020,3 hPa 0,0 l/m 6,1 km/h O 7,1 C 17,6 C 16,9 km/h
02.04.2009 16:00 17,7 C 50 % 1020,0 hPa 0,0 l/m 4,9 km/h O-NO 7,2 C 17,7 C 15,7 km/h
02.04.2009 17:00 17,4 C 50 % 1019,9 hPa 0,0 l/m 6,2 km/h O 6,8 C 17,3 C 14,5 km/h
02.04.2009 18:00 16,5 C 54 % 1019,9 hPa 0,0 l/m 4,9 km/h O 7,2 C 16,5 C 11,3 km/h
02.04.2009 19:00 14,6 C 60 % 1020,1 hPa 0,0 l/m 0,7 km/h N 6,9 C 14,6 C 2,4 km/h
02.04.2009 20:00 11,5 C 70 % 1020,6 hPa 0,0 l/m 0,0 km/h N 6,1 C 11,5 C 0,0 km/h
02.04.2009 21:00 9,8 C 77 % 1020,8 hPa 0,0 l/m 0,0 km/h N 6,0 C 9,8 C 0,0 km/h
02.04.2009 22:00 8,0 C 83 % 1020,8 hPa 0,0 l/m 0,0 km/h N 5,2 C 8,0 C 0,4 km/h
02.04.2009 23:00 7,3 C 83 % 1020,8 hPa 0,0 l/m 0,0 km/h N 4,5 C 7,3 C 0,0 km/h
03.04.2009 00:00 5,8 C 87 % 1020,9 hPa 0,0 l/m 0,0 km/h N 3,7 C 5,8 C 0,0 km/h
03.04.2009 01:00 4,8 C 89 % 1021,0 hPa 0,0 l/m 0,0 km/h N 3,1 C 4,8 C 0,0 km/h
03.04.2009 02:00 4,1 C 90 % 1021,0 hPa 0,0 l/m 0,1 km/h N 2,5 C 4,1 C 1,2 km/h
03.04.2009 03:00 3,6 C 90 % 1020,8 hPa 0,0 l/m 0,0 km/h N 2,1 C 3,6 C 0,4 km/h
03.04.2009 04:00 2,8 C 91 % 1020,9 hPa 0,0 l/m 0,0 km/h N 1,4 C 2,8 C 0,0 km/h
03.04.2009 05:00 2,7 C 91 % 1020,9 hPa 0,0 l/m 0,0 km/h N 1,3 C 2,7 C 0,4 km/h
03.04.2009 06:00 2,4 C 92 % 1021,1 hPa 0,0 l/m 0,0 km/h N 1,2 C 2,4 C 0,0 km/h
03.04.2009 07:00 3,9 C 92 % 1021,5 hPa 0,0 l/m 0,0 km/h N 2,7 C 3,9 C 0,8 km/h
03.04.2009 08:00 8,4 C 78 % 1021,5 hPa 0,0 l/m 0,8 km/h O-NO 4,7 C 8,4 C 2,0 km/h
03.04.2009 09:00 10,5 C 64 % 1021,6 hPa 0,0 l/m 3,1 km/h O 4,0 C 10,5 C 7,2 km/h
03.04.2009 10:00 12,8 C 58 % 1021,5 hPa 0,0 l/m 1,6 km/h S-SO 4,6 C 12,8 C 6,8 km/h
03.04.2009 11:00 13,9 C 60 % 1021,3 hPa 0,0 l/m 4,6 km/h O 6,2 C 13,9 C 10,5 km/h
03.04.2009 12:00 15,6 C 59 % 1020,8 hPa 0,0 l/m 3,1 km/h O-SO 7,6 C 15,6 C 10,9 km/h
03.04.2009 13:00 17,8 C 61 % 1020,2 hPa 0,0 l/m 4,4 km/h S-SO 10,2 C 17,8 C 13,3 km/h
03.04.2009 14:00 19,2 C 57 % 1019,4 hPa 0,0 l/m 4,8 km/h O-NO 10,4 C 19,2 C 15,3 km/h
03.04.2009 15:00 19,6 C 55 % 1019,1 hPa 0,0 l/m 4,0 km/h O-SO 10,4 C 19,6 C 14,1 km/h
03.04.2009 16:00 19,5 C 56 % 1018,7 hPa 0,0 l/m 4,3 km/h O 10,5 C 19,5 C 12,5 km/h
03.04.2009 17:00 19,0 C 58 % 1018,4 hPa 0,0 l/m 3,7 km/h O-SO 10,4 C 19,0 C 12,5 km/h
03.04.2009 18:00 18,5 C 60 % 1018,0 hPa 0,0 l/m 1,8 km/h S-SO 10,4 C 18,5 C 7,6 km/h
03.04.2009 19:00 16,7 C 65 % 1018,1 hPa 0,0 l/m 0,1 km/h N 10,1 C 16,7 C 1,6 km/h
03.04.2009 20:00 13,3 C 77 % 1018,4 hPa 0,0 l/m 0,0 km/h N 9,3 C 13,3 C 0,4 km/h
03.04.2009 21:00 11,2 C 84 % 1018,5 hPa 0,0 l/m 0,0 km/h N 8,6 C 11,2 C 0,4 km/h
03.04.2009 22:00 10,4 C 86 % 1018,5 hPa 0,0 l/m 0,0 km/h N 8,2 C 10,4 C 0,0 km/h
03.04.2009 23:00 9,0 C 89 % 1018,7 hPa 0,0 l/m 0,0 km/h N 7,3 C 9,0 C 0,4 km/h
04.04.2009 00:00 8,1 C 89 % 1018,6 hPa 0,0 l/m 0,1 km/h N 6,5 C 8,1 C 1,6 km/h
04.04.2009 01:00 7,5 C 91 % 1018,3 hPa 0,0 l/m 0,0 km/h N 6,2 C 7,5 C 0,4 km/h
04.04.2009 02:00 6,8 C 92 % 1017,9 hPa 0,0 l/m 0,0 km/h N 5,6 C 6,8 C 0,0 km/h
04.04.2009 03:00 6,1 C 92 % 1017,7 hPa 0,0 l/m 0,0 km/h N 5,0 C 6,1 C 0,0 km/h
04.04.2009 04:00 5,7 C 93 % 1017,7 hPa 0,0 l/m 0,0 km/h N 4,6 C 5,7 C 0,4 km/h
04.04.2009 05:00 5,4 C 93 % 1017,8 hPa 0,0 l/m 0,0 km/h N 4,4 C 5,4 C 0,8 km/h
04.04.2009 06:00 5,3 C 94 % 1017,9 hPa 0,0 l/m 0,0 km/h N 4,4 C 5,3 C 0,4 km/h
04.04.2009 07:00 6,8 C 94 % 1018,2 hPa 0,0 l/m 0,1 km/h N 5,9 C 6,8 C 1,6 km/h
04.04.2009 08:00 10,4 C 88 % 1018,4 hPa 0,0 l/m 0,1 km/h N 8,5 C 10,4 C 0,8 km/h
04.04.2009 09:00 13,3 C 79 % 1018,6 hPa 0,0 l/m 1,1 km/h O-SO 9,6 C 13,3 C 4,4 km/h
04.04.2009 10:00 15,7 C 72 % 1018,7 hPa 0,0 l/m 3,3 km/h O 10,6 C 15,7 C 8,0 km/h
04.04.2009 11:00 17,5 C 66 % 1018,6 hPa 0,0 l/m 3,8 km/h O-SO 11,0 C 17,5 C 8,0 km/h
04.04.2009 12:00 18,8 C 59 % 1018,3 hPa 0,0 l/m 3,7 km/h O-NO 10,7 C 18,8 C 9,3 km/h
04.04.2009 13:00 19,9 C 55 % 1018,0 hPa 0,0 l/m 2,9 km/h O-NO 10,6 C 19,9 C 9,7 km/h
04.04.2009 14:00 20,4 C 51 % 1017,6 hPa 0,0 l/m 3,1 km/h O-NO 10,0 C 20,4 C 8,8 km/h
04.04.2009 15:00 21,3 C 47 % 1017,0 hPa 0,0 l/m 2,5 km/h O-NO 9,5 C 21,3 C 8,1 km/h
04.04.2009 16:00 21,4 C 47 % 1016,8 hPa 0,0 l/m 2,3 km/h O-SO 9,4 C 21,4 C 6,4 km/h
04.04.2009 17:00 21,0 C 45 % 1016,6 hPa 0,0 l/m 1,9 km/h O 8,7 C 21,0 C 6,0 km/h
04.04.2009 18:00 20,0 C 47 % 1016,6 hPa 0,0 l/m 1,4 km/h O-SO 8,4 C 20,0 C 4,0 km/h
04.04.2009 19:00 17,5 C 57 % 1016,9 hPa 0,0 l/m 0,1 km/h N 8,8 C 17,5 C 1,6 km/h
04.04.2009 20:00 15,1 C 67 % 1017,6 hPa 0,0 l/m 0,2 km/h N 8,9 C 15,1 C 3,2 km/h
04.04.2009 21:00 13,4 C 71 % 1018,1 hPa 0,0 l/m 0,1 km/h SW 8,1 C 13,4 C 2,4 km/h
04.04.2009 22:00 13,5 C 70 % 1018,3 hPa 0,0 l/m 1,6 km/h W-SW 8,1 C 13,5 C 5,2 km/h
04.04.2009 23:00 12,9 C 72 % 1018,5 hPa 0,0 l/m 1,7 km/h SW 7,9 C 12,9 C 7,6 km/h
05.04.2009 00:00 11,9 C 75 % 1018,5 hPa 0,0 l/m 1,1 km/h W 7,5 C 11,9 C 7,6 km/h
05.04.2009 01:00 11,1 C 78 % 1018,4 hPa 0,0 l/m 0,3 km/h N 7,3 C 11,1 C 4,4 km/h
05.04.2009 02:00 9,8 C 82 % 1018,5 hPa 0,0 l/m 0,1 km/h N 6,9 C 9,8 C 1,6 km/h
05.04.2009 03:00 8,5 C 85 % 1018,5 hPa 0,0 l/m 0,0 km/h N 6,2 C 8,5 C 0,4 km/h
05.04.2009 04:00 7,4 C 88 % 1018,6 hPa 0,0 l/m 0,0 km/h N 5,6 C 7,4 C 0,0 km/h
05.04.2009 05:00 6,6 C 90 % 1018,6 hPa 0,0 l/m 0,0 km/h N 5,0 C 6,6 C 0,0 km/h
05.04.2009 06:00 6,0 C 90 % 1018,8 hPa 0,0 l/m 0,0 km/h N 4,6 C 6,0 C 0,0 km/h
05.04.2009 07:00 7,4 C 90 % 1019,3 hPa 0,0 l/m 0,0 km/h N 5,8 C 7,4 C 0,0 km/h
05.04.2009 08:00 11,5 C 79 % 1019,4 hPa 0,0 l/m 0,1 km/h N 8,0 C 11,5 C 0,8 km/h
05.04.2009 09:00 15,4 C 67 % 1019,4 hPa 0,0 l/m 1,3 km/h O 9,1 C 15,4 C 4,0 km/h
05.04.2009 10:00 18,1 C 59 % 1019,5 hPa 0,0 l/m 1,3 km/h NO 9,9 C 18,1 C 5,2 km/h
05.04.2009 11:00 20,0 C 49 % 1019,5 hPa 0,0 l/m 3,5 km/h N-NO 9,0 C 20,0 C 9,7 km/h
05.04.2009 12:00 20,9 C 43 % 1019,4 hPa 0,0 l/m 2,3 km/h O-NO 8,0 C 20,9 C 8,1 km/h
05.04.2009 13:00 21,4 C 38 % 1019,0 hPa 0,0 l/m 3,6 km/h O-NO 6,5 C 21,4 C 12,1 km/h
05.04.2009 14:00 21,6 C 39 % 1018,7 hPa 0,0 l/m 4,0 km/h O-NO 7,0 C 21,6 C 10,1 km/h
05.04.2009 15:00 21,6 C 38 % 1018,2 hPa 0,0 l/m 3,9 km/h O-NO 6,8 C 21,6 C 10,9 km/h
05.04.2009 16:00 21,6 C 39 % 1017,5 hPa 0,0 l/m 5,2 km/h O-NO 7,0 C 21,6 C 13,7 km/h
05.04.2009 17:00 21,1 C 42 % 1017,1 hPa 0,0 l/m 4,1 km/h NO 7,5 C 21,1 C 12,5 km/h
05.04.2009 18:00 20,3 C 41 % 1017,0 hPa 0,0 l/m 3,4 km/h O-NO 6,6 C 20,3 C 8,4 km/h
05.04.2009 19:00 17,9 C 49 % 1017,2 hPa 0,0 l/m 0,6 km/h O-NO 6,8 C 17,9 C 3,2 km/h
05.04.2009 20:00 15,6 C 56 % 1017,5 hPa 0,0 l/m 0,0 km/h N 6,9 C 15,6 C 1,2 km/h
05.04.2009 21:00 13,8 C 61 % 1017,8 hPa 0,0 l/m 0,2 km/h NW 6,5 C 13,8 C 2,4 km/h
05.04.2009 22:00 15,1 C 61 % 1018,2 hPa 0,0 l/m 4,1 km/h W-NW 7,6 C 15,1 C 8,4 km/h
05.04.2009 23:00 14,5 C 65 % 1018,3 hPa 0,0 l/m 2,3 km/h NW 7,9 C 14,5 C 6,4 km/h
Min-Datum _ 31.03.09 05.04.09 30.03.09 - 30.03.09 - 31.03.09 30.03.09 31.03.09
_ Min-Zeit 05:30 13:45 00:00 - 23:00 - 05:30 03:45 00:45
Minimum _ 0,5 C 35 % 1009,3 hPa - 0,0 km/h - -0,5 C 0,2 C 0,0 km/h
Max-Datum _ 05.04.09 04.04.09 31.03.09 30.03.09 30.03.09 - 04.04.09 05.04.09 30.03.09
_ Max-Zeit 14:45 05:15 09:45 01:15 10:45 - 11:15 14:15 04:15
Maximum _ 21,9 C 94 % 1024,2 hPa 1,2 l/m 10,6 km/h
NW
- 11,4 C 21,8 C 25,7 km/h
W
Durchschnitt _ 10,6 C 75 % 1019,2 hPa #5,1 l/m 2,5 km/h O-SO 6,0 C 10,4 C 7,0 km/h